Time;durP1;ratioP1;P1;durP2;ratioP2;P2;SDS_P1;SDS_P2;PMS_P1;PMS_P2;Temp;Humidity;BMP_temperature;BMP_pressure;BME280_temperature;BME280_humidity;BME280_pressure;Samples;Min_cycle;Max_cycle;Signal;HPM_P1;HPM_P2
2020/12/11 00:01:39;;;;;;;35.05;19.80;;;3.80;97.00;;;;;;5081298;28;20260;-64
2020/12/11 00:04:06;;;;;;;36.83;19.80;;;3.80;97.10;;;;;;5085280;28;20603;-63
2020/12/11 00:06:32;;;;;;;37.13;20.15;;;3.80;97.10;;;;;;5083092;28;20190;-64
2020/12/11 00:09:00;;;;;;;34.78;18.85;;;3.70;97.00;;;;;;5086890;28;20206;-64
2020/12/11 00:11:28;;;;;;;36.50;20.40;;;3.70;97.10;;;;;;5082944;28;20218;-64
2020/12/11 00:13:54;;;;;;;37.00;19.25;;;3.70;97.20;;;;;;5085293;28;20206;-64
2020/12/11 00:16:21;;;;;;;34.92;18.63;;;3.70;97.20;;;;;;5082873;28;20691;-64
2020/12/11 00:18:47;;;;;;;40.65;20.13;;;3.70;97.20;;;;;;5083494;28;20194;-64
2020/12/11 00:21:14;;;;;;;35.40;19.30;;;3.70;97.30;;;;;;5083841;28;20198;-64
2020/12/11 00:23:40;;;;;;;36.20;19.60;;;3.70;97.30;;;;;;5080122;28;20690;-63
2020/12/11 00:26:07;;;;;;;41.55;20.05;;;3.70;97.30;;;;;;5084722;28;20984;-63
2020/12/11 00:28:33;;;;;;;34.75;19.73;;;3.70;97.40;;;;;;5082312;28;20241;-64
2020/12/11 00:30:59;;;;;;;37.33;19.67;;;3.70;97.30;;;;;;5081485;28;20206;-63
2020/12/11 00:33:26;;;;;;;40.20;20.40;;;3.70;97.30;;;;;;5084297;28;20267;-64
2020/12/11 00:35:53;;;;;;;38.38;20.30;;;3.70;97.30;;;;;;5080985;28;20222;-63
2020/12/11 00:38:20;;;;;;;37.75;20.38;;;3.70;97.30;;;;;;5080610;28;20201;-64
2020/12/11 00:40:47;;;;;;;37.65;20.30;;;3.70;97.30;;;;;;5080310;28;20197;-63
2020/12/11 00:43:14;;;;;;;39.80;19.95;;;3.70;97.40;;;;;;5081522;28;20248;-63
2020/12/11 00:45:40;;;;;;;37.88;20.73;;;3.70;97.40;;;;;;5078813;28;20231;-64
2020/12/11 00:48:07;;;;;;;37.75;20.67;;;3.70;97.40;;;;;;5081365;28;20288;-64
2020/12/11 00:50:33;;;;;;;34.38;19.85;;;3.70;97.40;;;;;;5081063;28;20650;-65
2020/12/11 00:53:00;;;;;;;39.30;20.05;;;3.70;97.40;;;;;;5084860;28;20231;-65
2020/12/11 00:55:26;;;;;;;34.53;18.63;;;3.70;97.30;;;;;;5084847;28;20221;-64
2020/12/11 00:57:53;;;;;;;38.60;21.08;;;3.70;97.30;;;;;;5083561;28;20216;-64
2020/12/11 01:00:20;;;;;;;36.10;20.90;;;3.70;97.20;;;;;;5085028;28;20201;-63
2020/12/11 01:02:46;;;;;;;38.25;19.23;;;3.70;97.20;;;;;;5083318;28;20206;-64
2020/12/11 01:05:13;;;;;;;38.38;21.02;;;3.70;97.20;;;;;;5083409;28;20198;-64
2020/12/11 01:07:39;;;;;;;40.45;22.20;;;3.70;97.30;;;;;;5084018;28;20225;-64
2020/12/11 01:10:05;;;;;;;36.45;19.70;;;3.70;97.30;;;;;;5083246;28;20275;-64
2020/12/11 01:12:32;;;;;;;38.47;20.58;;;3.80;97.20;;;;;;5084111;28;20209;-64
2020/12/11 01:14:58;;;;;;;35.35;20.85;;;3.70;97.10;;;;;;5083184;28;20213;-63
2020/12/11 01:17:25;;;;;;;36.72;19.77;;;3.70;97.20;;;;;;5084047;28;20198;-64
2020/12/11 01:19:51;;;;;;;36.75;18.77;;;3.70;97.20;;;;;;5088885;28;20202;-64
2020/12/11 01:22:18;;;;;;;39.53;21.45;;;3.60;97.20;;;;;;5085861;28;20202;-63
2020/12/11 01:24:44;;;;;;;33.40;19.95;;;3.60;97.30;;;;;;5089329;28;20225;-63
2020/12/11 01:27:11;;;;;;;34.28;19.98;;;3.60;97.20;;;;;;5084829;28;20198;-64
2020/12/11 01:29:38;;;;;;;37.70;20.15;;;3.60;97.10;;;;;;5087991;28;20238;-63
2020/12/11 01:32:04;;;;;;;36.15;19.33;;;3.60;97.10;;;;;;5085798;28;20198;-63
2020/12/11 01:34:31;;;;;;;37.10;20.08;;;3.60;97.10;;;;;;5087193;28;20214;-63
2020/12/11 01:37:03;;;;;;;38.05;20.88;;;3.70;97.10;;;;;;5084588;28;20213;-64
2020/12/11 01:39:30;;;;;;;34.42;17.95;;;3.60;97.00;;;;;;5087927;28;20212;-64
2020/12/11 01:41:56;;;;;;;42.83;21.77;;;3.70;97.00;;;;;;5086090;28;20625;-63
2020/12/11 01:44:22;;;;;;;33.33;19.08;;;3.60;96.90;;;;;;5088005;28;20209;-63
2020/12/11 01:46:50;;;;;;;37.00;20.40;;;3.60;96.80;;;;;;5085408;28;20201;-63
2020/12/11 01:49:17;;;;;;;37.85;19.88;;;3.50;96.80;;;;;;5087215;28;20235;-64
2020/12/11 01:51:45;;;;;;;39.28;19.70;;;3.40;96.90;;;;;;5085463;28;20589;-64
2020/12/11 01:54:11;;;;;;;33.67;19.85;;;3.40;97.10;;;;;;5086891;28;20259;-63
2020/12/11 01:56:56;;;;;;;36.28;19.80;;;3.40;97.10;;;;;;5083676;28;20658;-63
2020/12/11 01:59:29;;;;;;;35.38;19.08;;;3.40;97.10;;;;;;5085266;28;20262;-64
2020/12/11 02:01:58;;;;;;;40.75;19.83;;;3.40;97.10;;;;;;5086126;28;20675;-63
2020/12/11 02:04:25;;;;;;;35.00;20.80;;;3.40;97.00;;;;;;5087440;28;20198;-62
2020/12/11 02:06:52;;;;;;;38.38;20.58;;;3.30;97.10;;;;;;5087355;28;20206;-63
2020/12/11 02:09:20;;;;;;;35.90;18.73;;;3.30;97.10;;;;;;5087582;28;20230;-63
2020/12/11 02:11:50;;;;;;;35.58;18.58;;;3.30;97.10;;;;;;5086652;28;20229;-63
2020/12/11 02:14:16;;;;;;;36.42;20.30;;;3.30;97.10;;;;;;5087644;28;20213;-63
2020/12/11 02:16:42;;;;;;;37.50;20.88;;;3.30;97.20;;;;;;5084831;28;20275;-64
2020/12/11 02:19:09;;;;;;;35.13;18.58;;;3.30;97.20;;;;;;5087966;28;20251;-64
2020/12/11 02:21:36;;;;;;;38.92;19.67;;;3.30;97.20;;;;;;5083913;28;20202;-64
2020/12/11 02:24:02;;;;;;;34.75;20.33;;;3.20;97.10;;;;;;5087839;28;20247;-64
2020/12/11 02:26:28;;;;;;;36.47;20.30;;;3.20;97.20;;;;;;5085553;28;20262;-64
2020/12/11 02:28:55;;;;;;;35.35;20.25;;;3.20;97.20;;;;;;5085496;28;20683;-63
2020/12/11 02:31:21;;;;;;;33.35;19.45;;;3.20;97.20;;;;;;5085516;28;20237;-63
2020/12/11 02:33:48;;;;;;;35.97;19.13;;;3.20;97.20;;;;;;5085475;28;20202;-64
2020/12/11 02:36:14;;;;;;;36.13;20.90;;;3.20;97.30;;;;;;5087211;28;20695;-64
2020/12/11 02:38:41;;;;;;;39.80;20.20;;;3.30;97.30;;;;;;5086400;28;20732;-63
2020/12/11 02:41:08;;;;;;;36.97;20.17;;;3.20;97.20;;;;;;5088382;28;20318;-63
2020/12/11 02:43:37;;;;;;;37.75;20.50;;;3.30;97.30;;;;;;5086935;28;20284;-63
2020/12/11 02:46:04;;;;;;;36.83;20.27;;;3.20;97.20;;;;;;5087822;28;20206;-63
2020/12/11 02:48:30;;;;;;;36.97;20.17;;;3.20;97.20;;;;;;5086256;28;20247;-63
2020/12/11 02:50:57;;;;;;;37.30;18.88;;;3.30;97.20;;;;;;5084076;28;20206;-64
2020/12/11 02:53:23;;;;;;;38.22;20.95;;;3.30;97.30;;;;;;5086359;28;20192;-64
2020/12/11 02:55:50;;;;;;;34.90;20.55;;;3.20;97.20;;;;;;5084771;28;20218;-65
2020/12/11 02:58:16;;;;;;;35.55;19.73;;;3.20;97.30;;;;;;5086412;28;20202;-64
2020/12/11 03:00:43;;;;;;;34.05;19.50;;;3.10;97.30;;;;;;5085197;28;20290;-64
2020/12/11 03:03:10;;;;;;;40.97;20.23;;;3.10;97.30;;;;;;5086790;28;20743;-64
2020/12/11 03:05:36;;;;;;;37.35;21.48;;;3.10;97.40;;;;;;5085938;28;20286;-64
2020/12/11 03:08:02;;;;;;;35.15;20.25;;;3.10;97.40;;;;;;5085231;28;20255;-63
2020/12/11 03:10:29;;;;;;;38.53;19.38;;;3.10;97.40;;;;;;5086847;28;20574;-63
2020/12/11 03:12:56;;;;;;;35.80;20.05;;;3.10;97.40;;;;;;5082753;28;20210;-63
2020/12/11 03:15:22;;;;;;;37.33;21.02;;;3.10;97.40;;;;;;5085825;28;20611;-63
2020/12/11 03:17:48;;;;;;;34.00;17.75;;;3.20;97.50;;;;;;5084871;28;20202;-64
2020/12/11 03:20:22;;;;;;;33.70;18.38;;;3.20;97.50;;;;;;5081190;28;20267;-64
2020/12/11 03:22:50;;;;;;;31.80;19.25;;;3.10;97.50;;;;;;5083604;28;20650;-63
2020/12/11 03:25:17;;;;;;;36.22;18.42;;;3.10;97.50;;;;;;5082799;28;20255;-63
2020/12/11 03:27:43;;;;;;;33.03;18.40;;;3.10;97.50;;;;;;5085841;28;20708;-64
2020/12/11 03:30:10;;;;;;;33.08;18.65;;;3.00;97.50;;;;;;5085828;28;20237;-64
2020/12/11 03:32:37;;;;;;;33.60;19.25;;;3.00;97.60;;;;;;5082021;28;20267;-65
2020/12/11 03:35:04;;;;;;;31.23;18.67;;;2.90;97.80;;;;;;5085127;28;20259;-65
2020/12/11 03:37:30;;;;;;;33.50;18.75;;;2.90;97.80;;;;;;5084740;28;21000;-65
2020/12/11 03:39:57;;;;;;;33.55;18.50;;;2.90;97.80;;;;;;5084899;28;20230;-64
2020/12/11 03:42:23;;;;;;;31.73;17.63;;;2.90;97.90;;;;;;5081430;28;20728;-65
2020/12/11 03:44:49;;;;;;;31.88;18.13;;;2.90;98.00;;;;;;5086414;28;20334;-64
2020/12/11 03:47:16;;;;;;;35.90;18.48;;;2.90;98.00;;;;;;5081655;28;20202;-65
2020/12/11 03:49:43;;;;;;;36.60;19.70;;;2.80;98.00;;;;;;5084491;28;20731;-64
2020/12/11 03:52:09;;;;;;;30.27;17.23;;;2.80;98.00;;;;;;5082826;28;20663;-63
2020/12/11 03:54:35;;;;;;;30.48;18.88;;;2.90;98.00;;;;;;5085995;28;20542;-64
2020/12/11 03:57:01;;;;;;;28.80;17.65;;;2.80;98.00;;;;;;5083340;28;20641;-63
2020/12/11 03:59:28;;;;;;;32.00;17.08;;;2.80;98.10;;;;;;5085831;28;20210;-64
2020/12/11 04:01:54;;;;;;;28.60;17.35;;;2.80;98.10;;;;;;5085324;28;20201;-63
2020/12/11 04:04:21;;;;;;;28.65;15.93;;;2.80;98.20;;;;;;5084810;28;20593;-63
2020/12/11 04:06:47;;;;;;;30.98;17.45;;;2.80;98.10;;;;;;5083689;28;20202;-63
2020/12/11 04:09:14;;;;;;;29.10;16.63;;;2.80;98.10;;;;;;5084786;28;20255;-63
2020/12/11 04:11:40;;;;;;;32.38;18.85;;;2.90;98.10;;;;;;5083274;28;21633;-62
2020/12/11 04:14:06;;;;;;;30.00;17.40;;;2.90;98.10;;;;;;5084656;28;20206;-63
2020/12/11 04:16:33;;;;;;;34.15;18.05;;;2.90;98.00;;;;;;5081791;28;20275;-63
2020/12/11 04:19:00;;;;;;;28.35;16.85;;;2.90;97.90;;;;;;5083485;28;20198;-64
2020/12/11 04:21:27;;;;;;;30.00;17.10;;;3.00;97.90;;;;;;5084534;28;20299;-64
2020/12/11 04:23:53;;;;;;;27.13;15.15;;;3.00;97.90;;;;;;5084655;28;20243;-64
2020/12/11 04:26:20;;;;;;;27.33;16.27;;;3.00;97.80;;;;;;5086221;28;20672;-62
2020/12/11 04:28:46;;;;;;;29.73;16.45;;;3.00;97.80;;;;;;5084116;28;20241;-70
2020/12/11 04:31:12;;;;;;;32.40;18.05;;;3.00;97.70;;;;;;5084943;28;20254;-64
2020/12/11 04:33:38;;;;;;;30.60;16.10;;;3.10;97.70;;;;;;5083345;28;20263;-63
2020/12/11 04:36:05;;;;;;;26.75;16.65;;;3.10;97.60;;;;;;5083328;28;20221;-64
2020/12/11 04:38:33;;;;;;;25.25;15.95;;;3.10;97.50;;;;;;5085559;28;20283;-65
2020/12/11 04:41:01;;;;;;;30.83;17.60;;;3.10;97.50;;;;;;5083844;28;20214;-65
2020/12/11 04:43:28;;;;;;;30.95;17.13;;;3.10;97.40;;;;;;5085474;28;20205;-64
2020/12/11 04:45:54;;;;;;;31.02;17.40;;;3.10;97.40;;;;;;5079888;28;20676;-69
2020/12/11 04:48:21;;;;;;;28.25;17.08;;;3.00;97.30;;;;;;5085432;28;20222;-63
2020/12/11 04:50:49;;;;;;;29.48;17.23;;;3.00;97.40;;;;;;5079702;28;20276;-64
2020/12/11 04:53:16;;;;;;;29.67;17.17;;;3.00;97.30;;;;;;5083715;28;20220;-63
2020/12/11 04:55:44;;;;;;;31.20;16.85;;;3.00;97.40;;;;;;5084136;28;20664;-65
2020/12/11 04:58:15;;;;;;;29.98;16.63;;;3.00;97.40;;;;;;5084696;28;20312;-64
2020/12/11 05:00:42;;;;;;;30.75;17.27;;;3.00;97.30;;;;;;5082998;28;20214;-64
2020/12/11 05:03:13;;;;;;;32.42;17.25;;;3.00;97.30;;;;;;5082851;28;20237;-65
2020/12/11 05:05:39;;;;;;;30.55;18.30;;;3.00;97.30;;;;;;5082502;28;20201;-64
2020/12/11 05:08:17;;;;;;;31.67;17.63;;;3.00;97.40;;;;;;5081090;28;20251;-64
2020/12/11 05:10:45;;;;;;;28.70;16.13;;;3.00;97.40;;;;;;5081383;28;20220;-64
2020/12/11 05:13:19;;;;;;;30.42;18.10;;;3.00;97.50;;;;;;5082892;28;20210;-64
2020/12/11 05:16:07;;;;;;;34.90;17.40;;;3.00;97.40;;;;;;5083506;28;20214;-64
2020/12/11 05:18:33;;;;;;;28.17;16.92;;;3.10;97.50;;;;;;5083776;28;20553;-64
2020/12/11 05:21:14;;;;;;;27.13;15.50;;;3.10;97.50;;;;;;5081817;28;20251;-64
2020/12/11 05:23:55;;;;;;;30.45;17.90;;;3.10;97.50;;;;;;5084728;28;20948;-64
2020/12/11 05:26:23;;;;;;;28.67;16.15;;;3.10;97.50;;;;;;5081924;28;20251;-65
2020/12/11 05:28:50;;;;;;;28.52;17.15;;;3.10;97.60;;;;;;5084864;28;20259;-65
2020/12/11 05:31:16;;;;;;;25.75;16.55;;;3.10;97.70;;;;;;5081203;28;20209;-64
2020/12/11 05:34:02;;;;;;;31.52;17.92;;;3.10;97.70;;;;;;5083408;28;20205;-64
2020/12/11 05:36:29;;;;;;;27.58;16.90;;;3.20;97.70;;;;;;5080062;28;20514;-63
2020/12/11 05:38:55;;;;;;;32.03;17.40;;;3.20;97.60;;;;;;5083567;28;20255;-63
2020/12/11 05:41:34;;;;;;;28.35;16.80;;;3.30;97.60;;;;;;5081330;28;20595;-64
2020/12/11 05:44:01;;;;;;;28.73;17.05;;;3.20;97.50;;;;;;5081280;28;20209;-63
2020/12/11 05:46:30;;;;;;;29.25;16.70;;;3.30;97.60;;;;;;5080169;28;20699;-62
2020/12/11 05:48:58;;;;;;;28.65;16.98;;;3.30;97.60;;;;;;5082962;28;20206;-62
2020/12/11 05:51:33;;;;;;;27.75;16.60;;;3.30;97.60;;;;;;5080085;28;20204;-62
2020/12/11 05:54:04;;;;;;;29.60;17.85;;;3.40;97.60;;;;;;5082717;28;20574;-63
2020/12/11 05:56:32;;;;;;;30.55;18.02;;;3.40;97.60;;;;;;5081064;28;20738;-63
2020/12/11 05:58:59;;;;;;;29.27;16.90;;;3.50;97.50;;;;;;5084491;28;20202;-63
2020/12/11 06:01:25;;;;;;;33.20;16.17;;;3.50;97.40;;;;;;5080685;28;20259;-63
2020/12/11 06:03:52;;;;;;;29.20;17.23;;;3.50;97.40;;;;;;5084327;28;20678;-63
2020/12/11 06:06:19;;;;;;;25.35;15.32;;;3.50;97.40;;;;;;5084169;28;20709;-63
2020/12/11 06:08:45;;;;;;;28.92;17.50;;;3.60;97.30;;;;;;5086093;28;20247;-62
2020/12/11 06:11:17;;;;;;;27.23;16.63;;;3.60;97.30;;;;;;5084902;28;20264;-63
2020/12/11 06:13:50;;;;;;;27.35;16.08;;;3.60;97.30;;;;;;5087167;28;20244;-65
2020/12/11 06:16:20;;;;;;;27.45;16.75;;;3.60;97.30;;;;;;5086165;28;20346;-63
2020/12/11 06:18:48;;;;;;;28.48;17.73;;;3.60;97.30;;;;;;5083980;28;20245;-62
2020/12/11 06:21:18;;;;;;;26.23;16.90;;;3.60;97.30;;;;;;5086815;28;20206;-62
2020/12/11 06:23:44;;;;;;;26.92;16.10;;;3.60;97.40;;;;;;5086327;28;20263;-64
2020/12/11 06:26:15;;;;;;;26.10;14.95;;;3.60;97.40;;;;;;5086080;28;20318;-62
2020/12/11 06:28:44;;;;;;;30.98;16.92;;;3.60;97.40;;;;;;5085467;28;20225;-63
2020/12/11 06:31:12;;;;;;;28.42;16.90;;;3.70;97.30;;;;;;5087533;28;20263;-69
2020/12/11 06:33:41;;;;;;;27.90;16.60;;;3.70;97.30;;;;;;5084386;28;20209;-63
2020/12/11 06:36:07;;;;;;;28.92;15.45;;;3.70;97.30;;;;;;5086015;28;20241;-64
2020/12/11 06:38:47;;;;;;;27.63;15.70;;;3.70;97.20;;;;;;5088471;28;20229;-62
2020/12/11 06:41:15;;;;;;;27.10;16.33;;;3.70;97.20;;;;;;5087431;28;20201;-65
2020/12/11 06:43:44;;;;;;;27.35;16.42;;;3.70;97.20;;;;;;5084978;28;20216;-64
2020/12/11 06:46:18;;;;;;;28.35;15.65;;;3.70;97.20;;;;;;5085655;28;20205;-63
2020/12/11 06:49:10;;;;;;;26.35;16.33;;;3.70;97.20;;;;;;5085997;28;20202;-63
2020/12/11 06:52:11;;;;;;;27.25;16.30;;;3.70;97.30;;;;;;5086610;28;20522;-62
2020/12/11 06:54:54;;;;;;;24.85;14.77;;;3.70;97.40;;;;;;5086886;28;20282;-65
2020/12/11 06:57:41;;;;;;;25.55;15.65;;;3.70;97.30;;;;;;5085570;28;20213;-65
2020/12/11 07:00:34;;;;;;;27.08;16.33;;;3.70;97.30;;;;;;5084432;28;20203;-65
2020/12/11 07:03:24;;;;;;;23.13;14.45;;;3.80;97.30;;;;;;5083681;28;20205;-65
2020/12/11 07:06:00;;;;;;;28.77;16.60;;;3.80;97.30;;;;;;5080011;28;21016;-64
2020/12/11 07:08:26;;;;;;;26.95;15.75;;;3.90;97.30;;;;;;5084830;28;20738;-64
2020/12/11 07:10:52;;;;;;;27.95;16.17;;;3.90;97.20;;;;;;5082979;28;20222;-67
2020/12/11 07:13:19;;;;;;;27.50;15.93;;;3.90;97.20;;;;;;5086654;28;20209;-66
2020/12/11 07:15:45;;;;;;;29.58;15.40;;;4.00;97.10;;;;;;5085977;28;20222;-65
2020/12/11 07:18:16;;;;;;;23.73;14.52;;;4.00;97.10;;;;;;5085482;28;20202;-67
2020/12/11 07:20:49;;;;;;;25.35;15.73;;;4.00;97.10;;;;;;5084564;28;20569;-67
2020/12/11 07:23:18;;;;;;;25.73;15.27;;;3.90;97.10;;;;;;5083885;28;22782;-66
2020/12/11 07:25:46;;;;;;;27.98;16.02;;;3.90;97.20;;;;;;5084463;28;20603;-66
2020/12/11 07:28:13;;;;;;;25.35;15.00;;;4.00;97.20;;;;;;5083213;28;20202;-66
2020/12/11 07:30:41;;;;;;;26.17;15.82;;;4.00;97.10;;;;;;5084064;28;20659;-66
2020/12/11 07:33:09;;;;;;;24.30;14.77;;;4.00;97.10;;;;;;5083930;28;20259;-64
2020/12/11 07:35:37;;;;;;;30.75;15.75;;;4.10;97.10;;;;;;5089513;28;20233;-67
2020/12/11 07:38:04;;;;;;;26.67;15.82;;;4.10;97.00;;;;;;5089749;28;20281;-65
2020/12/11 07:40:31;;;;;;;26.70;15.23;;;4.00;97.00;;;;;;5088118;28;20213;-66
2020/12/11 07:42:59;;;;;;;26.88;16.35;;;4.10;97.10;;;;;;5090022;28;20202;-66
2020/12/11 07:45:28;;;;;;;28.20;15.10;;;4.10;97.10;;;;;;5089541;28;20552;-64
2020/12/11 07:47:55;;;;;;;25.60;15.77;;;4.10;97.10;;;;;;5089298;28;20246;-65
2020/12/11 07:50:25;;;;;;;27.77;16.45;;;4.00;97.20;;;;;;5089618;28;20205;-71
2020/12/11 07:52:53;;;;;;;27.75;19.30;;;4.00;97.20;;;;;;5086216;28;21003;-64
2020/12/11 07:55:20;;;;;;;29.10;18.52;;;4.30;97.30;;;;;;5086993;28;20523;-65
2020/12/11 07:57:54;;;;;;;28.97;19.00;;;4.30;97.20;;;;;;5088151;28;20456;-67
2020/12/11 08:00:21;;;;;;;28.25;19.38;;;4.40;97.10;;;;;;5087513;28;20444;-68
2020/12/11 08:02:58;;;;;;;24.20;16.00;;;4.40;97.00;;;;;;5089524;28;20541;-64
2020/12/11 08:05:24;;;;;;;27.38;17.00;;;4.30;97.00;;;;;;5089395;28;20204;-66
2020/12/11 08:07:53;;;;;;;29.02;17.70;;;4.30;97.20;;;;;;5088603;28;20798;-66
2020/12/11 08:10:22;;;;;;;29.13;18.98;;;4.30;97.20;;;;;;5088561;28;20440;-70
2020/12/11 08:12:48;;;;;;;25.98;16.27;;;4.40;97.30;;;;;;5088279;28;20727;-67
2020/12/11 08:15:33;;;;;;;28.33;18.92;;;4.30;97.20;;;;;;5087339;28;20436;-64
2020/12/11 08:18:13;;;;;;;28.35;20.45;;;4.40;97.30;;;;;;5083938;28;21232;-69
2020/12/11 08:20:50;;;;;;;26.17;17.15;;;4.60;96.80;;;;;;5082504;28;20206;-65
2020/12/11 08:23:25;;;;;;;26.45;16.00;;;4.50;96.90;;;;;;5081611;28;20259;-65
2020/12/11 08:26:21;;;;;;;26.27;16.77;;;4.40;97.20;;;;;;5082346;28;20270;-66
2020/12/11 08:28:49;;;;;;;33.15;18.40;;;4.30;97.30;;;;;;5002826;28;20236;-66
2020/12/11 08:31:22;;;;;;;28.67;17.60;;;4.20;97.40;;;;;;5064050;28;20206;-65
2020/12/11 08:33:50;;;;;;;29.38;17.35;;;4.10;97.40;;;;;;5085145;28;20202;-66
2020/12/11 08:36:21;;;;;;;30.33;17.08;;;4.10;97.60;;;;;;5082208;28;20205;-65
2020/12/11 08:39:11;;;;;;;28.02;16.73;;;4.10;97.60;;;;;;5085006;28;20231;-65
2020/12/11 08:41:40;;;;;;;28.33;16.95;;;4.00;97.70;;;;;;5083138;28;20206;-66
2020/12/11 08:44:16;;;;;;;25.45;15.95;;;4.00;97.70;;;;;;5084454;28;20208;-67
2020/12/11 08:47:11;;;;;;;27.80;17.08;;;4.00;97.70;;;;;;5079866;28;20618;-70
2020/12/11 08:49:42;;;;;;;26.38;16.15;;;4.00;97.80;;;;;;5084935;28;20206;-68
2020/12/11 08:52:09;;;;;;;29.35;16.77;;;4.00;97.90;;;;;;5082417;28;20202;-68
2020/12/11 08:54:35;;;;;;;27.58;16.58;;;4.00;98.00;;;;;;5084337;28;20259;-68
2020/12/11 08:57:02;;;;;;;28.15;16.48;;;4.00;98.10;;;;;;5084671;28;20615;-68
2020/12/11 08:59:28;;;;;;;31.48;17.25;;;4.00;98.10;;;;;;5085492;28;20209;-69
2020/12/11 09:01:55;;;;;;;30.20;16.90;;;4.10;98.40;;;;;;5083945;28;20205;-68
2020/12/11 09:04:21;;;;;;;25.63;15.73;;;4.10;98.30;;;;;;5083472;28;20266;-69
2020/12/11 09:06:48;;;;;;;29.23;16.80;;;4.10;98.30;;;;;;5082954;28;20243;-68
2020/12/11 09:09:14;;;;;;;27.70;17.20;;;4.10;98.40;;;;;;5084405;28;20251;-69
2020/12/11 09:11:40;;;;;;;28.33;17.08;;;4.20;98.40;;;;;;5080995;28;20280;-72
2020/12/11 09:14:06;;;;;;;27.00;16.35;;;4.20;98.40;;;;;;5084388;28;20201;-69
2020/12/11 09:16:33;;;;;;;27.85;17.00;;;4.20;98.50;;;;;;5084639;28;20222;-68
2020/12/11 09:19:00;;;;;;;26.75;15.75;;;4.20;98.60;;;;;;5082332;28;20757;-67
2020/12/11 09:21:27;;;;;;;32.38;16.17;;;4.20;98.70;;;;;;5083999;28;20251;-68
2020/12/11 09:23:53;;;;;;;30.83;16.23;;;4.20;98.70;;;;;;5082702;28;20193;-67
2020/12/11 09:26:20;;;;;;;25.63;16.42;;;4.30;98.70;;;;;;5084314;28;20202;-67
2020/12/11 09:28:50;;;;;;;29.73;17.05;;;4.20;98.70;;;;;;5083192;28;20273;-68
2020/12/11 09:31:21;;;;;;;28.90;17.73;;;4.30;98.80;;;;;;5084278;28;20198;-67
2020/12/11 09:33:47;;;;;;;28.15;17.05;;;4.20;98.80;;;;;;5083014;28;20202;-67
2020/12/11 09:36:14;;;;;;;26.15;16.05;;;4.20;98.90;;;;;;5079767;28;20554;-68
2020/12/11 09:38:41;;;;;;;27.63;16.40;;;4.30;99.00;;;;;;5086215;28;20231;-68
2020/12/11 09:41:08;;;;;;;25.55;16.08;;;4.30;99.00;;;;;;5085993;28;20598;-68
2020/12/11 09:44:00;;;;;;;28.77;16.92;;;4.30;99.00;;;;;;5089287;28;20229;-68
2020/12/11 09:46:34;;;;;;;25.75;16.02;;;4.30;99.10;;;;;;5086397;28;20720;-70
2020/12/11 09:49:04;;;;;;;27.42;16.60;;;4.30;99.10;;;;;;5086971;28;20198;-67
2020/12/11 09:51:49;;;;;;;25.17;15.98;;;4.40;99.10;;;;;;5085415;28;20206;-68
2020/12/11 09:54:19;;;;;;;29.35;16.27;;;4.50;99.10;;;;;;5086994;28;20671;-68
2020/12/11 09:56:46;;;;;;;25.42;16.13;;;4.60;99.00;;;;;;5086021;28;20248;-68
2020/12/11 09:59:15;;;;;;;26.35;15.93;;;4.60;99.00;;;;;;5086096;28;20198;-69
2020/12/11 10:01:55;;;;;;;28.15;16.27;;;4.60;99.00;;;;;;5085138;28;20258;-68
2020/12/11 10:04:21;;;;;;;27.58;17.08;;;4.70;99.00;;;;;;5084289;28;20232;-68
2020/12/11 10:06:48;;;;;;;27.85;16.25;;;4.70;98.90;;;;;;5083931;28;20263;-69
2020/12/11 10:09:15;;;;;;;28.80;15.88;;;4.70;98.90;;;;;;5085117;28;20209;-69
2020/12/11 10:11:41;;;;;;;24.45;15.02;;;4.70;98.80;;;;;;5084457;28;20230;-69
2020/12/11 10:16:52;;;;;;;25.65;14.68;;;4.60;98.90;;;;;;5082827;28;20239;-68
2020/12/11 10:19:19;;;;;;;28.20;16.23;;;4.70;99.00;;;;;;5084377;28;21031;-68
2020/12/11 10:21:47;;;;;;;28.10;16.35;;;4.70;99.00;;;;;;5082703;28;20217;-68
2020/12/11 10:24:14;;;;;;;24.77;15.40;;;4.70;98.90;;;;;;5084107;28;20198;-69
2020/12/11 10:26:41;;;;;;;28.23;16.08;;;4.70;98.90;;;;;;5082082;28;20280;-69
2020/12/11 10:29:07;;;;;;;29.45;16.23;;;4.70;98.90;;;;;;5084252;28;20229;-67
2020/12/11 10:31:34;;;;;;;25.92;16.77;;;4.70;98.80;;;;;;5081988;28;20237;-68
2020/12/11 10:34:00;;;;;;;26.02;15.63;;;4.70;98.80;;;;;;5084447;28;20205;-68
2020/12/11 10:36:30;;;;;;;26.23;15.98;;;4.70;98.80;;;;;;5081587;28;20221;-68
2020/12/11 10:38:58;;;;;;;24.45;15.95;;;4.70;98.70;;;;;;5085082;28;20285;-68
2020/12/11 10:41:24;;;;;;;28.67;16.58;;;4.70;98.70;;;;;;5080914;28;20222;-67
2020/12/11 10:43:51;;;;;;;29.38;15.98;;;4.70;98.70;;;;;;5085733;28;20205;-67
2020/12/11 10:46:18;;;;;;;26.75;17.35;;;4.70;98.80;;;;;;5086260;28;20248;-68
2020/12/11 10:48:44;;;;;;;27.40;16.77;;;4.70;98.90;;;;;;5087018;28;20810;-68
2020/12/11 10:51:11;;;;;;;27.60;17.10;;;4.70;99.00;;;;;;5084669;28;20263;-68
2020/12/11 10:53:38;;;;;;;29.77;17.23;;;4.60;99.00;;;;;;5085028;28;20209;-68
2020/12/11 10:56:06;;;;;;;28.55;17.48;;;4.60;99.20;;;;;;5084871;28;20206;-67
2020/12/11 10:58:32;;;;;;;30.65;17.88;;;4.60;99.40;;;;;;5087227;28;20251;-68
2020/12/11 11:00:59;;;;;;;28.67;18.02;;;4.60;99.40;;;;;;5085402;28;20210;-67
2020/12/11 11:03:27;;;;;;;30.05;18.13;;;4.60;99.50;;;;;;5084651;28;20663;-68
2020/12/11 11:05:54;;;;;;;28.83;17.73;;;4.60;99.50;;;;;;5084708;28;20202;-68
2020/12/11 11:08:21;;;;;;;30.05;17.95;;;4.60;99.50;;;;;;5087198;28;20231;-69
2020/12/11 11:10:49;;;;;;;29.20;18.50;;;4.60;99.60;;;;;;5083961;28;20194;-68
2020/12/11 11:13:25;;;;;;;28.92;17.88;;;4.60;99.70;;;;;;5086432;28;20202;-69
2020/12/11 11:15:53;;;;;;;30.80;18.88;;;4.60;99.80;;;;;;5085108;28;20248;-68
2020/12/11 11:18:43;;;;;;;29.45;17.58;;;4.60;99.80;;;;;;5086959;28;20194;-67
2020/12/11 11:21:34;;;;;;;30.20;18.70;;;4.60;99.90;;;;;;5086011;28;20202;-68
2020/12/11 11:26:56;;;;;;;30.23;17.90;;;4.60;99.90;;;;;;5086220;28;20197;-68
2020/12/11 11:29:23;;;;;;;27.23;18.08;;;4.70;99.90;;;;;;5086763;28;20234;-67
2020/12/11 11:31:49;;;;;;;28.77;18.27;;;4.60;99.90;;;;;;5084654;28;20675;-68
2020/12/11 11:34:16;;;;;;;27.85;17.52;;;4.70;99.90;;;;;;5086071;28;20209;-68
2020/12/11 11:36:42;;;;;;;29.83;17.92;;;4.60;99.90;;;;;;5084953;28;20589;-68
2020/12/11 11:39:08;;;;;;;31.92;19.00;;;4.60;99.90;;;;;;5081166;28;20607;-68
2020/12/11 11:41:47;;;;;;;36.03;20.08;;;4.60;99.90;;;;;;5083960;28;20247;-67
2020/12/11 11:46:56;;;;;;;34.58;18.05;;;4.60;99.90;;;;;;5079384;28;20206;-68
2020/12/11 11:49:27;;;;;;;31.13;18.77;;;4.60;99.90;;;;;;5086310;28;20649;-68
2020/12/11 11:52:00;;;;;;;29.45;18.17;;;4.60;99.90;;;;;;5083438;28;20217;-68
2020/12/11 11:54:26;;;;;;;30.55;18.73;;;4.60;99.90;;;;;;5085817;28;20202;-68
2020/12/11 11:56:52;;;;;;;29.90;18.65;;;4.60;99.90;;;;;;5085649;28;20218;-68
2020/12/11 11:59:19;;;;;;;31.40;18.20;;;4.60;99.90;;;;;;5085234;28;20210;-67
2020/12/11 12:01:45;;;;;;;30.23;18.75;;;4.60;99.90;;;;;;5084394;28;20201;-69
2020/12/11 12:04:12;;;;;;;29.10;18.27;;;4.70;99.90;;;;;;5083513;28;20724;-67
2020/12/11 12:06:38;;;;;;;33.63;19.02;;;4.70;99.90;;;;;;5085038;28;20201;-68
2020/12/11 12:09:05;;;;;;;32.58;19.48;;;4.70;99.90;;;;;;5083316;28;20247;-67
2020/12/11 12:11:31;;;;;;;33.00;18.15;;;4.70;99.90;;;;;;5083549;28;20683;-68
2020/12/11 12:13:59;;;;;;;29.60;18.67;;;4.70;99.90;;;;;;5083992;28;20233;-68
2020/12/11 12:16:25;;;;;;;31.75;19.08;;;4.70;99.90;;;;;;5078769;28;20218;-67
2020/12/11 12:18:55;;;;;;;32.75;20.00;;;4.70;99.90;;;;;;5084925;28;20262;-68
2020/12/11 12:21:29;;;;;;;31.52;18.75;;;4.80;99.90;;;;;;5078991;28;20667;-67
2020/12/11 12:27:21;;;;;;;30.55;19.42;;;4.80;99.90;;;;;;5081804;28;20208;-68
2020/12/11 12:29:39;;;;;;;29.42;18.05;;;4.80;99.90;;;;;;5079525;28;20257;-67
2020/12/11 12:32:09;;;;;;;31.70;19.38;;;4.90;99.90;;;;;;5078966;28;20230;-68
2020/12/11 12:40:31;;;;;;;28.40;17.98;;;4.90;99.90;;;;;;5004777;28;20219;-68
2020/12/11 12:45:44;;;;;;;28.75;18.25;;;5.00;99.90;;;;;;5054607;28;20782;-68
2020/12/11 12:48:10;;;;;;;26.90;18.13;;;5.00;99.90;;;;;;5085658;28;20198;-68
2020/12/11 12:50:36;;;;;;;34.22;18.77;;;5.00;99.90;;;;;;5081773;28;20689;-68
2020/12/11 12:53:03;;;;;;;29.52;17.92;;;5.00;99.90;;;;;;5085289;28;20611;-69
2020/12/11 12:55:41;;;;;;;31.55;18.98;;;5.00;99.90;;;;;;5084192;28;20224;-69
2020/12/11 12:58:09;;;;;;;31.05;18.48;;;5.00;99.90;;;;;;5083511;28;20247;-69
2020/12/11 13:00:46;;;;;;;32.97;18.65;;;5.00;99.90;;;;;;5083505;28;20628;-69
2020/12/11 13:03:28;;;;;;;29.30;18.08;;;5.10;99.90;;;;;;5084030;28;20684;-68
2020/12/11 13:05:54;;;;;;;27.90;18.00;;;5.10;99.90;;;;;;5082484;28;20206;-68